Time;durP1;ratioP1;P1;durP2;ratioP2;P2;SDS_P1;SDS_P2;PMS_P1;PMS_P2;Temp;Humidity;BMP_temperature;BMP_pressure;BME280_temperature;BME280_humidity;BME280_pressure;Samples;Min_cycle;Max_cycle;Signal;HPM_P1;HPM_P2
2022/12/30 00:01:24;;;;;;;11.77;2.97;;;;;;;9.34;69.27;99109.78;5011641;28;20091;-79
2022/12/30 00:03:50;;;;;;;17.85;3.90;;;;;;;9.29;69.60;99107.44;5011812;28;20062;-79
2022/12/30 00:06:20;;;;;;;12.98;3.67;;;;;;;9.27;69.47;99105.88;5011702;28;20070;-78
2022/12/30 00:08:50;;;;;;;11.40;3.03;;;;;;;9.20;69.78;99106.22;5011307;28;20062;-79
2022/12/30 00:11:24;;;;;;;12.70;2.97;;;;;;;9.15;69.11;99104.84;5011617;28;20050;-79
2022/12/30 00:34:20;;;;;;;10.85;3.20;;;;;;;9.01;68.38;99127.50;4957461;28;20141;-79
2022/12/30 00:36:49;;;;;;;16.42;4.00;;;;;;;9.04;69.80;99135.22;5010675;28;20054;-79
2022/12/30 00:39:15;;;;;;;14.85;3.00;;;;;;;9.05;70.56;99147.38;5011015;28;20459;-79
2022/12/30 00:44:27;;;;;;;12.95;2.95;;;;;;;9.02;70.36;99144.97;5011005;28;20079;-78
2022/12/30 00:46:55;;;;;;;10.57;2.63;;;;;;;9.03;70.48;99154.53;5010784;28;20058;-78
2022/12/30 00:57:37;;;;;;;18.17;2.80;;;;;;;8.95;70.48;99165.50;5010769;28;20085;-78
2022/12/30 01:00:08;;;;;;;13.98;3.35;;;;;;;8.92;69.93;99173.56;4993259;28;20054;-78
2022/12/30 01:02:34;;;;;;;17.38;2.90;;;;;;;8.91;70.72;99163.13;5010577;28;20217;-79
2022/12/30 01:05:01;;;;;;;11.63;2.35;;;;;;;8.92;70.77;99164.81;5010228;28;20531;-78
2022/12/30 01:07:28;;;;;;;10.38;2.47;;;;;;;8.90;70.32;99171.97;5010466;28;20108;-78
2022/12/30 01:09:55;;;;;;;15.40;2.95;;;;;;;8.89;70.61;99167.66;5009627;28;20085;-78
2022/12/30 01:12:22;;;;;;;15.98;2.72;;;;;;;8.86;70.27;99185.25;5010355;28;20081;-78
2022/12/30 01:14:50;;;;;;;10.48;2.70;;;;;;;8.84;70.15;99170.53;5009931;28;20127;-78
2022/12/30 01:17:21;;;;;;;11.27;2.60;;;;;;;8.81;69.99;99182.06;5007576;28;20073;-78
2022/12/30 01:19:48;;;;;;;13.02;2.97;;;;;;;8.81;70.79;99186.44;5010034;28;20049;-79
2022/12/30 01:22:15;;;;;;;14.63;2.90;;;;;;;8.80;70.78;99192.66;5010205;28;20077;-78
2022/12/30 01:24:41;;;;;;;18.98;3.72;;;;;;;8.77;70.85;99193.66;5008942;28;20061;-79
2022/12/30 01:27:07;;;;;;;13.25;2.92;;;;;;;8.76;70.80;99199.88;5009866;28;20085;-78
2022/12/30 01:29:39;;;;;;;14.32;3.28;;;;;;;8.79;70.97;99199.66;5009858;28;20061;-78
2022/12/30 01:32:08;;;;;;;12.68;3.25;;;;;;;8.79;71.26;99196.22;5009743;28;20116;-79
2022/12/30 01:34:36;;;;;;;14.27;2.35;;;;;;;8.82;71.12;99204.75;5009901;28;20153;-78
2022/12/30 01:37:03;;;;;;;17.85;3.25;;;;;;;8.85;71.24;99193.22;5009735;28;20567;-78
2022/12/30 01:39:30;;;;;;;14.27;3.15;;;;;;;8.85;70.95;99204.56;5010107;28;20058;-79
2022/12/30 01:41:56;;;;;;;13.02;2.75;;;;;;;8.86;71.16;99203.63;5009808;28;20058;-78
2022/12/30 01:44:56;;;;;;;12.25;3.08;;;;;;;8.82;69.08;99209.16;5010075;28;20085;-78
2022/12/30 01:47:34;;;;;;;13.27;3.33;;;;;;;8.83;70.15;99211.66;5009936;28;20071;-79
2022/12/30 01:50:37;;;;;;;14.43;3.10;;;;;;;8.79;68.51;99214.59;5009927;28;20112;-78
2022/12/30 01:53:15;;;;;;;6.63;2.15;;;;;;;8.82;70.77;99209.16;5006169;28;20053;-78
2022/12/30 01:55:42;;;;;;;9.82;3.05;;;;;;;8.80;71.00;99218.88;5009515;28;20057;-78
2022/12/30 01:58:14;;;;;;;14.75;3.42;;;;;;;8.78;70.88;99216.34;5009657;28;20054;-78
2022/12/30 02:00:41;;;;;;;12.30;2.83;;;;;;;8.81;71.22;99223.19;5009623;28;20062;-78
2022/12/30 02:03:08;;;;;;;12.43;2.97;;;;;;;8.81;71.31;99215.31;5008115;28;20069;-78
2022/12/30 02:05:37;;;;;;;12.48;2.70;;;;;;;8.79;70.75;99222.44;5007808;28;20062;-78
2022/12/30 02:08:11;;;;;;;11.88;2.40;;;;;;;8.79;69.92;99225.91;5009010;28;20116;-78
2022/12/30 02:10:41;;;;;;;14.95;3.53;;;;;;;8.79;70.97;99225.91;5016241;28;20088;-78
2022/12/30 02:13:12;;;;;;;14.52;2.75;;;;;;;8.79;70.29;99233.78;5092042;23;20064;-88
2022/12/30 02:16:07;;;;;;;11.07;2.67;;;;;;;8.77;69.39;99242.69;5018659;28;20058;-87
2022/12/30 02:18:39;;;;;;;8.98;2.50;;;;;;;8.80;70.94;99242.50;5010328;28;20145;-88
2022/12/30 02:21:32;;;;;;;15.05;2.65;;;;;;;8.79;70.15;99238.19;4995966;28;20068;-88
2022/12/30 02:24:36;;;;;;;15.10;3.00;;;;;;;8.79;70.06;99235.56;5014859;28;20073;-83
2022/12/30 02:27:32;;;;;;;12.65;3.22;;;;;;;8.78;69.42;99247.84;5013888;28;20061;-85
2022/12/30 02:29:58;;;;;;;12.48;2.65;;;;;;;8.81;71.34;99245.03;5014778;28;20050;-88
2022/12/30 02:32:45;;;;;;;10.05;2.60;;;;;;;8.80;71.05;99226.75;5014494;28;20057;-86
2022/12/30 02:35:38;;;;;;;13.68;3.03;;;;;;;8.79;70.54;99246.06;5014202;28;20085;-86
2022/12/30 02:38:19;;;;;;;13.57;3.35;;;;;;;8.79;70.44;99238.19;4983689;28;20143;-87
2022/12/30 02:46:37;;;;;;;15.43;2.63;;;;;;;8.82;70.59;99251.97;5013828;28;20561;-87
2022/12/30 02:49:06;;;;;;;10.77;2.97;;;;;;;8.83;71.09;99243.16;5014204;28;20050;-86
2022/12/30 02:54:19;;;;;;;11.70;3.33;;;;;;;8.83;71.29;99250.22;5014247;28;20096;-86
2022/12/30 02:56:50;;;;;;;14.77;2.75;;;;;;;8.81;70.63;99249.44;5013506;28;20092;-87
2022/12/30 03:05:24;;;;;;;11.52;2.85;;;;;;;8.82;71.42;99248.53;5013623;28;20062;-88
2022/12/30 03:08:08;;;;;;;15.52;3.42;;;;;;;8.76;69.46;99239.22;5013523;28;20768;-87
2022/12/30 03:11:13;;;;;;;12.20;3.03;;;;;;;8.73;68.88;99242.88;5013873;28;20057;-86
2022/12/30 03:13:55;;;;;;;12.13;2.83;;;;;;;8.71;68.64;99249.16;5013644;28;20423;-87
2022/12/30 03:16:25;;;;;;;9.25;2.22;;;;;;;8.70;69.91;99245.66;5013442;28;20093;-86
2022/12/30 03:18:53;;;;;;;13.45;2.75;;;;;;;8.68;70.85;99239.66;5013539;28;20101;-87
2022/12/30 03:21:23;;;;;;;16.00;3.05;;;;;;;8.64;71.06;99238.16;5013672;28;20061;-84
2022/12/30 03:29:31;;;;;;;13.07;2.60;;;;;;;8.53;70.50;99245.78;5013665;28;20418;-88
2022/12/30 03:31:58;;;;;;;17.60;3.45;;;;;;;8.49;70.80;99245.09;5012502;28;20061;-83
2022/12/30 03:34:27;;;;;;;10.73;2.72;;;;;;;8.42;70.83;99236.72;4996053;28;20054;-88
2022/12/30 03:37:03;;;;;;;19.50;3.03;;;;;;;8.35;70.69;99228.34;5012501;28;20089;-83
2022/12/30 03:40:01;;;;;;;15.82;3.05;;;;;;;8.30;69.74;99226.94;4996290;28;20054;-88
2022/12/30 03:42:29;;;;;;;13.35;2.72;;;;;;;8.29;70.91;99238.31;5011167;28;20141;-85
2022/12/30 03:44:55;;;;;;;16.67;2.35;;;;;;;8.26;71.22;99233.28;5012965;28;20061;-88
2022/12/30 03:47:22;;;;;;;12.55;2.95;;;;;;;8.23;71.45;99238.69;4994884;28;20057;-86
2022/12/30 03:49:49;;;;;;;21.42;3.05;;;;;;;8.20;71.39;99243.19;4995776;28;20056;-87
2022/12/30 03:52:18;;;;;;;14.35;3.45;;;;;;;8.17;71.54;99251.19;5013228;28;20140;-84
2022/12/30 03:54:45;;;;;;;11.40;2.60;;;;;;;8.17;71.99;99251.19;5012561;28;20489;-87
2022/12/30 03:57:11;;;;;;;11.27;2.72;;;;;;;8.15;72.15;99247.81;4995051;28;20046;-83
2022/12/30 03:59:40;;;;;;;13.80;2.78;;;;;;;8.16;71.83;99251.28;4995345;28;20058;-87
2022/12/30 04:02:06;;;;;;;14.68;3.25;;;;;;;8.16;72.09;99257.38;4995548;28;20077;-87
2022/12/30 04:04:33;;;;;;;11.82;2.60;;;;;;;8.15;72.00;99253.03;5012552;28;20058;-88
2022/12/30 04:07:00;;;;;;;18.02;3.42;;;;;;;8.16;72.27;99257.38;5012157;28;20465;-84
2022/12/30 04:09:27;;;;;;;12.60;2.78;;;;;;;8.18;72.14;99258.13;5012429;28;20049;-88
2022/12/30 04:11:53;;;;;;;13.27;3.47;;;;;;;8.17;71.93;99245.97;5012635;28;20116;-87
2022/12/30 04:14:20;;;;;;;11.02;2.53;;;;;;;8.17;71.83;99245.97;5012369;28;20050;-85
2022/12/30 04:16:46;;;;;;;18.60;2.63;;;;;;;8.15;72.03;99245.19;4994358;28;20482;-82
2022/12/30 04:19:13;;;;;;;11.88;2.72;;;;;;;8.14;71.86;99245.25;5012456;28;20525;-85
2022/12/30 04:21:39;;;;;;;9.82;2.28;;;;;;;8.11;71.79;99238.41;5012648;28;20094;-82
2022/12/30 04:24:06;;;;;;;14.52;2.80;;;;;;;8.07;71.67;99235.13;5012576;28;20466;-85
2022/12/30 04:26:32;;;;;;;12.80;2.80;;;;;;;8.03;71.40;99244.09;5011753;28;20049;-77
2022/12/30 04:28:59;;;;;;;13.45;3.45;;;;;;;8.00;71.30;99251.28;5012194;28;20053;-86
2022/12/30 04:31:26;;;;;;;11.75;2.25;;;;;;;7.95;71.87;99241.03;4994901;28;20050;-88
2022/12/30 04:33:53;;;;;;;12.32;2.45;;;;;;;7.92;71.91;99254.31;4995140;28;20100;-87
2022/12/30 04:36:21;;;;;;;16.30;3.28;;;;;;;7.87;71.74;99251.94;5011900;28;20140;-86
2022/12/30 04:38:48;;;;;;;12.57;3.08;;;;;;;7.84;71.65;99253.91;5011900;28;20093;-85
2022/12/30 04:41:14;;;;;;;13.90;3.08;;;;;;;7.80;72.05;99250.56;4994723;28;20058;-87
2022/12/30 04:43:41;;;;;;;13.98;3.28;;;;;;;7.76;72.08;99254.28;5011845;28;20085;-87
2022/12/30 04:46:07;;;;;;;12.95;2.58;;;;;;;7.74;72.11;99261.41;5011745;28;20069;-83
2022/12/30 04:48:34;;;;;;;11.98;2.60;;;;;;;7.73;72.08;99259.72;4994309;28;20136;-84
2022/12/30 04:51:01;;;;;;;15.15;2.90;;;;;;;7.69;72.25;99262.47;5012083;28;20062;-88
2022/12/30 04:53:27;;;;;;;14.02;2.95;;;;;;;7.67;71.98;99259.09;4994247;28;20169;-88
2022/12/30 04:55:55;;;;;;;11.57;2.42;;;;;;;7.64;72.18;99261.03;4994162;28;20096;-87
2022/12/30 04:58:22;;;;;;;14.95;2.85;;;;;;;7.63;72.49;99267.22;5011236;28;20050;-88
2022/12/30 05:00:50;;;;;;;11.90;2.85;;;;;;;7.59;72.35;99266.50;4994471;28;20053;-86
2022/12/30 05:03:17;;;;;;;14.65;3.13;;;;;;;7.58;72.60;99264.00;5011948;28;20422;-87
2022/12/30 05:05:45;;;;;;;15.63;3.08;;;;;;;7.55;72.12;99259.72;5011306;28;20053;-87
2022/12/30 05:08:12;;;;;;;12.27;2.47;;;;;;;7.54;72.32;99265.91;5011122;28;20513;-87
2022/12/30 05:10:41;;;;;;;15.48;2.97;;;;;;;7.50;72.40;99265.22;5011472;28;20089;-88
2022/12/30 05:13:07;;;;;;;17.55;2.75;;;;;;;7.49;72.57;99267.91;5010992;28;20143;-85
2022/12/30 05:15:34;;;;;;;18.92;3.55;;;;;;;7.46;72.81;99263.69;5011583;28;20053;-85
2022/12/30 05:18:00;;;;;;;10.88;2.90;;;;;;;7.44;72.72;99265.53;5011257;28;20050;-87
2022/12/30 05:20:27;;;;;;;13.93;3.28;;;;;;;7.41;72.79;99258.69;5011443;28;20062;-87
2022/12/30 05:22:53;;;;;;;11.25;3.35;;;;;;;7.39;72.45;99260.53;5011545;28;20455;-83
2022/12/30 05:28:05;;;;;;;11.40;2.75;;;;;;;7.36;72.93;99265.09;5011188;28;20135;-87
2022/12/30 05:30:31;;;;;;;13.35;2.88;;;;;;;7.35;72.66;99268.63;5011320;28;20056;-88
2022/12/30 05:32:58;;;;;;;16.35;3.47;;;;;;;7.33;72.98;99267.88;5011410;28;20057;-83
2022/12/30 05:35:25;;;;;;;18.70;3.78;;;;;;;7.32;72.89;99271.44;5010688;28;20145;-86
2022/12/30 05:37:51;;;;;;;10.60;3.47;;;;;;;7.29;72.60;99275.06;5010806;28;20140;-88
2022/12/30 05:40:18;;;;;;;17.55;3.70;;;;;;;7.29;72.67;99280.28;5011461;28;20060;-87
2022/12/30 05:42:45;;;;;;;12.13;3.33;;;;;;;7.27;72.83;99275.13;5011486;28;20141;-89
2022/12/30 05:45:11;;;;;;;11.02;3.63;;;;;;;7.23;72.88;99262.25;5010531;28;20060;-86
2022/12/30 05:47:38;;;;;;;12.32;3.25;;;;;;;7.22;72.66;99278.91;5009810;28;20520;-87
2022/12/30 05:50:05;;;;;;;15.45;3.20;;;;;;;7.19;72.79;99279.03;5010961;28;20057;-85
2022/12/30 05:52:31;;;;;;;20.52;3.75;;;;;;;7.16;73.05;99280.91;5010653;28;20049;-83
2022/12/30 05:54:58;;;;;;;17.48;3.97;;;;;;;7.14;73.17;99281.91;5010280;28;20064;-85
2022/12/30 05:57:24;;;;;;;13.95;2.90;;;;;;;7.13;73.02;99280.19;5010462;28;20065;-87
2022/12/30 05:59:51;;;;;;;15.43;3.83;;;;;;;7.10;73.20;99283.81;5011109;28;20085;-87
2022/12/30 06:02:17;;;;;;;16.80;4.43;;;;;;;7.08;73.29;99277.81;5010718;28;20058;-88
2022/12/30 06:04:44;;;;;;;12.43;3.40;;;;;;;7.06;73.03;99274.41;5010741;28;20439;-83
2022/12/30 06:07:10;;;;;;;13.93;3.25;;;;;;;7.04;73.25;99265.81;5009856;28;20144;-87
2022/12/30 06:09:37;;;;;;;13.40;3.67;;;;;;;7.02;73.31;99272.88;5010756;28;20060;-86
2022/12/30 06:12:03;;;;;;;20.08;4.05;;;;;;;7.02;73.10;99275.50;5010492;28;20118;-88
2022/12/30 06:14:30;;;;;;;13.60;3.83;;;;;;;7.00;73.28;99275.56;4993291;28;20057;-87
2022/12/30 06:16:56;;;;;;;19.25;4.40;;;;;;;6.99;73.23;99268.66;5009998;28;20120;-83
2022/12/30 06:19:23;;;;;;;15.85;3.53;;;;;;;7.00;73.60;99272.13;5009195;28;20058;-87
2022/12/30 06:21:49;;;;;;;16.17;3.40;;;;;;;6.99;73.34;99265.22;5010855;28;20529;-88
2022/12/30 06:24:16;;;;;;;11.13;3.25;;;;;;;6.99;73.34;99262.59;5010734;28;20141;-88
2022/12/30 06:26:43;;;;;;;15.32;3.85;;;;;;;6.98;73.60;99266.97;5009973;28;20057;-88
2022/12/30 06:29:09;;;;;;;15.75;3.40;;;;;;;6.98;73.22;99263.50;5010165;28;20392;-84
2022/12/30 06:31:36;;;;;;;14.82;3.75;;;;;;;6.95;73.50;99274.97;5010668;28;20058;-85
2022/12/30 06:34:02;;;;;;;12.13;3.17;;;;;;;6.97;73.59;99269.66;5010339;28;20058;-86
2022/12/30 06:36:29;;;;;;;16.50;3.80;;;;;;;6.95;73.42;99272.34;5010517;28;20060;-87
2022/12/30 06:38:55;;;;;;;14.75;3.17;;;;;;;6.94;73.52;99259.34;4992687;28;20054;-88
2022/12/30 06:41:22;;;;;;;15.57;3.38;;;;;;;6.93;73.40;99258.50;4992897;28;20141;-84
2022/12/30 06:43:48;;;;;;;15.68;3.40;;;;;;;6.93;73.20;99270.72;5010434;28;20664;-85
2022/12/30 06:46:15;;;;;;;15.25;3.80;;;;;;;6.92;73.76;99259.44;5010036;28;20080;-86
2022/12/30 06:48:41;;;;;;;11.23;3.42;;;;;;;6.93;73.32;99252.41;5009675;28;20054;-84
2022/12/30 06:51:08;;;;;;;13.82;3.67;;;;;;;6.93;73.48;99253.28;5010122;28;20085;-87
2022/12/30 06:53:34;;;;;;;15.90;3.50;;;;;;;6.93;73.66;99249.78;5008994;28;20097;-80
2022/12/30 06:56:01;;;;;;;11.85;3.28;;;;;;;6.93;73.36;99253.28;5009430;28;20085;-86
2022/12/30 06:58:28;;;;;;;17.75;2.95;;;;;;;6.94;73.49;99248.88;5009663;28;20056;-86
2022/12/30 07:00:54;;;;;;;17.45;3.33;;;;;;;6.93;73.69;99250.66;4992434;28;20101;-86
2022/12/30 07:03:21;;;;;;;11.98;2.60;;;;;;;6.93;73.66;99247.19;5009440;28;20503;-81
2022/12/30 07:05:47;;;;;;;12.93;2.47;;;;;;;6.93;73.83;99247.19;5009427;28;20078;-83
2022/12/30 07:08:14;;;;;;;12.48;2.47;;;;;;;6.93;74.00;99255.88;5012935;28;20054;-86
2022/12/30 07:10:40;;;;;;;14.88;3.00;;;;;;;6.93;73.48;99257.66;5013807;28;20140;-83
2022/12/30 07:13:15;;;;;;;21.98;3.30;;;;;;;6.94;73.38;99248.88;5013712;28;20065;-87
2022/12/30 07:15:42;;;;;;;10.23;2.88;;;;;;;6.94;73.70;99254.09;5013531;28;20054;-83
2022/12/30 07:18:08;;;;;;;14.15;2.50;;;;;;;6.94;73.49;99249.72;5013311;28;20054;-86
2022/12/30 07:20:35;;;;;;;12.00;2.63;;;;;;;6.92;73.27;99262.06;4995796;28;20060;-87
2022/12/30 07:23:02;;;;;;;16.55;2.88;;;;;;;6.91;73.26;99248.13;5013262;28;20050;-83
2022/12/30 07:25:29;;;;;;;10.82;2.47;;;;;;;6.90;73.12;99254.28;5013425;28;20054;-86
2022/12/30 07:27:58;;;;;;;14.27;2.90;;;;;;;6.89;73.10;99257.78;4994276;28;20060;-88
2022/12/30 07:30:25;;;;;;;15.70;3.25;;;;;;;6.88;73.65;99256.09;5013579;28;20057;-85
2022/12/30 07:32:51;;;;;;;12.32;3.22;;;;;;;6.89;73.08;99262.19;5013518;28;20050;-88
2022/12/30 07:35:18;;;;;;;15.32;2.75;;;;;;;6.87;73.47;99248.31;5013143;28;20141;-86
2022/12/30 07:37:44;;;;;;;12.80;2.30;;;;;;;6.86;73.62;99251.88;5012755;28;20514;-86
2022/12/30 07:40:11;;;;;;;9.77;2.80;;;;;;;6.84;73.37;99254.56;5013343;28;20479;-83
2022/12/30 07:42:37;;;;;;;12.77;3.13;;;;;;;6.83;73.67;99250.25;4995735;28;20064;-84
2022/12/30 07:45:04;;;;;;;9.80;2.53;;;;;;;6.83;73.49;99249.41;5012109;28;20096;-87
2022/12/30 07:47:32;;;;;;;11.63;2.90;;;;;;;6.84;73.71;99245.88;5012451;28;20089;-83
2022/12/30 07:50:02;;;;;;;12.57;2.92;;;;;;;6.84;73.80;99249.34;5012876;28;20060;-87
2022/12/30 07:52:29;;;;;;;13.98;2.53;;;;;;;6.84;73.58;99244.09;5013261;28;20133;-88
2022/12/30 07:54:56;;;;;;;11.15;3.05;;;;;;;6.83;73.72;99250.25;5012591;28;20418;-84
2022/12/30 07:57:22;;;;;;;10.32;2.58;;;;;;;6.83;73.85;99252.03;5012534;28;20137;-87
2022/12/30 07:59:49;;;;;;;14.70;2.60;;;;;;;6.81;73.41;99244.28;5011396;28;20068;-88
2022/12/30 08:02:15;;;;;;;14.70;3.20;;;;;;;6.82;73.91;99250.34;5013136;28;20060;-87
2022/12/30 08:04:42;;;;;;;16.60;3.28;;;;;;;6.82;73.77;99251.19;5012713;28;20053;-83
2022/12/30 08:07:19;;;;;;;14.10;3.15;;;;;;;6.83;73.93;99252.88;5012660;28;20058;-84
2022/12/30 08:09:45;;;;;;;14.60;3.30;;;;;;;6.84;73.86;99243.28;5012440;28;20441;-87
2022/12/30 08:12:12;;;;;;;12.32;2.40;;;;;;;6.86;74.07;99233.56;4995222;28;20088;-86
2022/12/30 08:14:38;;;;;;;16.73;2.83;;;;;;;6.86;74.02;99239.66;5082508;22;20045;-80
2022/12/30 08:17:05;;;;;;;14.35;2.83;;;;;;;6.89;73.83;99234.25;5029984;28;20049;-79
2022/12/30 08:19:31;;;;;;;15.95;2.83;;;;;;;6.91;74.03;99242.88;5031352;28;20079;-79
2022/12/30 08:21:58;;;;;;;13.77;3.08;;;;;;;6.94;73.98;99230.56;5031341;28;20558;-78
2022/12/30 08:24:24;;;;;;;10.52;2.70;;;;;;;6.98;74.13;99234.72;5031270;28;20136;-78
2022/12/30 08:26:51;;;;;;;9.80;2.50;;;;;;;7.01;74.04;99226.72;5031030;28;20066;-78
2022/12/30 08:29:17;;;;;;;9.68;2.53;;;;;;;7.03;73.97;99227.50;5031098;28;20053;-78
2022/12/30 08:31:49;;;;;;;5.60;1.90;;;;;;;7.06;74.10;99221.25;5029850;28;20049;-78
2022/12/30 08:34:18;;;;;;;9.50;2.30;;;;;;;7.06;73.53;99227.31;5030943;28;20527;-79
2022/12/30 08:36:45;;;;;;;10.80;2.13;;;;;;;7.11;73.53;99216.63;5030650;28;20057;-79
2022/12/30 08:39:13;;;;;;;12.73;2.67;;;;;;;7.12;73.68;99215.69;5030793;28;20049;-79
2022/12/30 08:41:42;;;;;;;9.38;2.50;;;;;;;7.13;73.72;99210.38;5030745;28;20053;-79
2022/12/30 08:44:15;;;;;;;11.27;2.80;;;;;;;7.16;73.81;99196.28;5030665;28;20160;-79
2022/12/30 08:46:42;;;;;;;8.18;1.90;;;;;;;7.19;74.08;99197.91;5030588;28;20608;-78
2022/12/30 08:49:10;;;;;;;10.55;2.53;;;;;;;7.20;73.97;99197.81;5030948;28;20053;-80
2022/12/30 08:51:38;;;;;;;8.88;2.33;;;;;;;7.23;73.73;99186.34;5030749;28;20123;-79
2022/12/30 08:54:04;;;;;;;9.43;2.10;;;;;;;7.26;73.94;99178.34;5012677;28;20401;-80
2022/12/30 08:56:32;;;;;;;12.00;2.50;;;;;;;7.30;74.08;99179.88;5030390;28;20061;-80
2022/12/30 08:58:59;;;;;;;10.43;2.42;;;;;;;7.34;74.33;99168.31;5030462;28;20091;-80
2022/12/30 09:01:29;;;;;;;7.55;2.15;;;;;;;7.38;73.70;99155.88;5030634;28;20060;-80
2022/12/30 09:03:57;;;;;;;8.77;2.20;;;;;;;7.42;73.84;99160.88;5012845;28;20501;-79
2022/12/30 09:06:25;;;;;;;11.38;2.50;;;;;;;7.47;73.91;99162.41;5030659;28;20049;-79
2022/12/30 09:08:52;;;;;;;7.43;1.95;;;;;;;7.49;73.57;99150.94;5030126;28;20100;-80
2022/12/30 09:11:22;;;;;;;7.93;2.35;;;;;;;7.53;73.84;99149.84;5012437;28;20053;-79
2022/12/30 09:13:49;;;;;;;5.45;1.75;;;;;;;7.57;73.62;99153.13;5029383;28;20057;-79
2022/12/30 09:16:23;;;;;;;10.77;2.00;;;;;;;7.61;73.74;99148.56;5029234;28;20096;-79
2022/12/30 09:18:51;;;;;;;11.95;2.20;;;;;;;7.63;73.99;99147.53;5030198;28;20153;-79
2022/12/30 09:21:18;;;;;;;8.10;2.30;;;;;;;7.65;73.87;99147.47;5030162;28;20056;-79
2022/12/30 09:23:45;;;;;;;10.38;2.30;;;;;;;7.68;73.37;99135.06;5029827;28;20056;-78
2022/12/30 09:26:19;;;;;;;12.90;2.40;;;;;;;7.70;72.63;99137.56;5012481;28;20057;-78
2022/12/30 09:28:45;;;;;;;8.10;2.20;;;;;;;7.72;73.32;99127.00;5030090;28;20057;-79
2022/12/30 09:31:11;;;;;;;11.85;2.10;;;;;;;7.74;73.33;99128.59;5029172;28;20103;-79
2022/12/30 09:33:38;;;;;;;8.43;2.13;;;;;;;7.76;73.16;99120.66;5029869;28;20053;-79
2022/12/30 09:36:06;;;;;;;12.57;2.75;;;;;;;7.81;73.59;99121.25;5029657;28;20062;-79
2022/12/30 09:38:33;;;;;;;15.85;2.55;;;;;;;7.84;73.12;99110.59;5029974;28;20057;-79
2022/12/30 09:41:10;;;;;;;8.25;1.98;;;;;;;7.84;71.96;99123.72;5030024;28;20096;-78
2022/12/30 09:44:00;;;;;;;9.73;2.10;;;;;;;7.86;70.45;99121.00;5029894;28;20096;-79
2022/12/30 09:46:43;;;;;;;12.80;2.30;;;;;;;7.90;70.77;99107.66;5029527;28;20063;-78
2022/12/30 09:49:26;;;;;;;12.90;2.75;;;;;;;7.96;71.78;99109.06;5012247;28;20061;-79
2022/12/30 09:51:59;;;;;;;11.13;2.80;;;;;;;7.99;72.02;99092.34;5029637;28;20100;-79
2022/12/30 09:54:29;;;;;;;5.38;1.75;;;;;;;8.01;72.41;99104.44;5029554;28;20121;-79
2022/12/30 09:57:30;;;;;;;9.57;2.08;;;;;;;8.03;72.11;99093.84;5029029;28;20111;-79
2022/12/30 09:59:52;;;;;;;13.02;1.95;;;;;;;8.06;71.99;99091.03;5029465;28;20393;-79
2022/12/30 10:02:24;;;;;;;8.40;1.83;;;;;;;8.10;72.10;99087.31;5011743;28;20482;-79
2022/12/30 10:04:51;;;;;;;8.57;1.85;;;;;;;8.16;73.11;99073.00;5029295;28;20092;-79
2022/12/30 10:07:35;;;;;;;8.25;2.03;;;;;;;8.17;71.58;99075.56;5011454;28;20147;-79
2022/12/30 10:10:34;;;;;;;5.15;1.65;;;;;;;8.25;72.57;99050.63;5029499;28;20103;-79
2022/12/30 10:13:14;;;;;;;8.25;1.70;;;;;;;8.30;72.20;99059.94;5020129;28;20397;-79
2022/12/30 10:15:53;;;;;;;6.72;1.42;;;;;;;8.35;71.73;99041.31;5028954;28;20049;-79
2022/12/30 10:18:38;;;;;;;7.40;2.10;;;;;;;8.43;73.41;99035.59;5029272;28;20219;-79
2022/12/30 10:21:30;;;;;;;7.10;2.05;;;;;;;8.45;70.93;99031.94;5029452;28;20108;-79
2022/12/30 10:24:21;;;;;;;6.40;1.70;;;;;;;8.50;69.80;99025.59;5029115;28;20061;-80
2022/12/30 10:26:49;;;;;;;7.47;1.67;;;;;;;8.57;71.26;99006.78;5029089;28;20061;-79
2022/12/30 10:29:43;;;;;;;8.18;1.75;;;;;;;8.59;70.85;98999.69;5029154;28;20053;-79
2022/12/30 10:32:16;;;;;;;7.22;1.58;;;;;;;8.66;71.32;98984.41;5027461;28;20057;-78
2022/12/30 10:34:44;;;;;;;3.95;1.60;;;;;;;8.71;72.61;98971.84;5029078;28;20061;-79
2022/12/30 10:37:16;;;;;;;5.03;1.48;;;;;;;8.77;72.26;98975.00;5011400;28;20122;-79
2022/12/30 10:39:51;;;;;;;6.90;1.85;;;;;;;8.78;70.78;98960.97;5029115;28;20797;-79
2022/12/30 10:42:47;;;;;;;6.78;1.70;;;;;;;8.81;70.22;98956.38;5032068;28;20057;-79
2022/12/30 10:45:28;;;;;;;7.45;1.40;;;;;;;8.88;70.95;98945.47;5032670;28;20507;-79
2022/12/30 10:48:29;;;;;;;5.72;1.48;;;;;;;8.94;69.30;98940.69;5033105;28;20115;-79
2022/12/30 10:50:56;;;;;;;4.63;1.33;;;;;;;9.04;73.04;98927.00;5032717;28;20585;-79
2022/12/30 10:53:27;;;;;;;5.03;1.45;;;;;;;9.09;71.81;98919.66;5032664;28;20405;-79
2022/12/30 10:55:59;;;;;;;6.97;1.80;;;;;;;9.15;71.13;98932.38;5032897;28;20092;-79
2022/12/30 10:58:47;;;;;;;7.70;2.07;;;;;;;9.20;70.03;98918.97;5015358;28;20132;-78
2022/12/30 11:01:22;;;;;;;7.03;1.85;;;;;;;9.29;70.95;98910.47;5015175;28;20291;-79
2022/12/30 11:03:51;;;;;;;5.35;1.63;;;;;;;9.38;71.99;98920.38;5014795;28;20061;-79
2022/12/30 11:06:19;;;;;;;6.78;1.52;;;;;;;9.44;71.95;98908.63;5032630;28;20139;-79
2022/12/30 11:08:46;;;;;;;6.78;1.90;;;;;;;9.49;71.33;98914.41;5032536;28;20061;-79
2022/12/30 11:11:13;;;;;;;6.60;2.42;;;;;;;9.53;71.30;98904.53;5032474;28;20046;-79
2022/12/30 11:16:32;;;;;;;7.43;2.30;;;;;;;9.65;71.47;98884.50;5016175;28;20065;-79
2022/12/30 11:19:02;;;;;;;5.07;1.45;;;;;;;9.70;70.42;98898.16;5032644;28;20292;-79
2022/12/30 11:21:37;;;;;;;5.70;1.75;;;;;;;9.76;71.27;98895.13;5032324;28;20566;-79
2022/12/30 11:24:05;;;;;;;9.43;1.88;;;;;;;9.82;70.91;98890.38;5014823;28;20458;-79
2022/12/30 11:26:33;;;;;;;4.40;1.20;;;;;;;9.86;70.86;98886.59;5031908;28;20057;-80
2022/12/30 11:29:06;;;;;;;6.05;1.60;;;;;;;9.88;69.17;98880.28;5032724;28;20053;-79
2022/12/30 11:31:40;;;;;;;;;;;;;;;9.94;67.99;98868.53;5015136;28;20094;-80
2022/12/30 11:34:16;;;;;;;4.97;2.00;;;;;;;9.99;68.23;98870.84;5032197;28;19984;-79
2022/12/30 11:36:43;;;;;;;8.27;1.35;;;;;;;10.04;70.99;98871.34;5031826;28;20054;-80
2022/12/30 11:39:25;;;;;;;6.28;1.55;;;;;;;10.01;68.10;98875.03;5032043;28;20053;-80
2022/12/30 11:41:54;;;;;;;4.55;1.60;;;;;;;10.06;70.62;98868.63;5014939;28;20057;-79
2022/12/30 11:44:23;;;;;;;7.82;1.50;;;;;;;10.06;69.38;98858.97;5032929;28;20061;-79
2022/12/30 11:46:53;;;;;;;7.25;1.75;;;;;;;10.07;70.16;98852.75;5032728;28;20136;-79
2022/12/30 11:49:33;;;;;;;3.90;1.30;;;;;;;10.10;70.47;98843.81;5032331;28;20507;-79
2022/12/30 11:52:03;;;;;;;6.93;1.75;;;;;;;10.11;69.69;98848.09;5015016;28;20107;-79
2022/12/30 11:54:32;;;;;;;2.15;1.10;;;;;;;10.09;69.05;98853.47;5031609;28;20057;-79
2022/12/30 11:57:03;;;;;;;7.65;1.42;;;;;;;10.11;70.19;98821.81;5031529;28;20060;-79
2022/12/30 11:59:42;;;;;;;6.05;1.75;;;;;;;10.12;68.93;98823.50;5031847;28;20057;-79
2022/12/30 12:02:31;;;;;;;3.33;1.23;;;;;;;10.09;67.57;98811.41;5031556;28;20517;-79
2022/12/30 12:04:58;;;;;;;11.10;2.22;;;;;;;10.14;69.97;98804.03;5031496;28;20069;-79
2022/12/30 12:07:33;;;;;;;5.88;1.48;;;;;;;10.12;69.38;98795.41;5031460;28;20114;-79
2022/12/30 12:10:12;;;;;;;4.43;1.23;;;;;;;10.11;68.42;98790.25;5031475;28;20144;-79
2022/12/30 12:12:47;;;;;;;3.35;1.33;;;;;;;10.11;68.86;98785.00;5031622;28;20085;-79
2022/12/30 12:15:32;;;;;;;5.43;1.20;;;;;;;10.14;70.42;98784.78;5031385;28;20057;-78
2022/12/30 12:18:04;;;;;;;3.88;1.58;;;;;;;10.13;69.20;98780.50;5031315;28;20053;-79
2022/12/30 12:20:38;;;;;;;5.43;1.65;;;;;;;10.12;67.63;98773.53;5013721;28;20049;-79
2022/12/30 12:23:14;;;;;;;9.07;1.60;;;;;;;10.13;69.00;98759.44;5031276;28;20511;-79
2022/12/30 12:25:49;;;;;;;5.70;1.80;;;;;;;10.14;69.44;98745.34;5031189;28;20065;-79
2022/12/30 12:28:15;;;;;;;4.60;1.67;;;;;;;10.19;70.60;98731.84;5031308;28;20088;-79
2022/12/30 12:30:47;;;;;;;7.70;1.40;;;;;;;10.17;69.10;98732.81;5030661;28;20504;-79
2022/12/30 12:33:37;;;;;;;;;;;;;;;10.21;68.61;98728.16;5031375;28;20061;-81
2022/12/30 12:36:23;;;;;;;4.85;1.20;;;;;;;10.25;68.43;98720.91;5030724;28;19925;-78
2022/12/30 12:38:55;;;;;;;3.22;1.23;;;;;;;10.24;68.79;98716.59;5030788;28;20122;-79
2022/12/30 12:41:56;;;;;;;4.07;1.58;;;;;;;10.21;67.92;98704.50;5012969;28;20500;-78
2022/12/30 12:45:06;;;;;;;6.15;1.23;;;;;;;10.20;67.96;98692.28;5005899;28;20115;-79
2022/12/30 12:48:21;;;;;;;4.05;1.50;;;;;;;10.22;67.96;98679.88;5030583;28;20061;-79
2022/12/30 12:51:12;;;;;;;3.83;1.13;;;;;;;10.24;68.49;98667.44;4999019;28;20176;-79
2022/12/30 12:53:51;;;;;;;5.95;1.20;;;;;;;10.26;68.49;98649.78;5030706;28;20061;-79